Terminal Aerodrome Forecast
Issued by NWS

Home | Current Version | Previous Version | Text Only | Print | Product List | Glossary On
Versions: 1 2 3 4 5 6 7 8 9 10 11 12 13 14 15 16 17 18 19 20 21 22 23 24 25 26
000
FTUS46 KSEW 260900 AAA
TAFSEA
TAF AMD
KSEA 260900Z 2609/2712 VRB03KT 1/4SM FG VV001
     FM261700 VRB03KT 1SM BR BKN002
     FM261800 17006KT P6SM SCT010
     FM262000 17006KT P6SM SKC
     FM270400 17006KT P6SM BKN200=

USA.gov is the U.S. government's official web portal to all federal, state and local government web resources and services.